Buoy 46612

sailwx.info

Track history (hours):
 
Tides and Currents Weather Stations Pressure Air Temp Water Temp Dewpoint Dewpoint Depression Visibility Wind Speed Wind Dir Waves Ship Positions

Drifting buoy 46612

Last reported at 2015-Sep-04 23:00 UTC. Time now 2015-Sep-05 03:46 UTC.
Position N 33°33' W 141°35'.

Water temperature 23.3 ° C

Date/timePositionNaut miles runAvg speedWind from/ knotsBaromVisibWave heightAir tempDewpointWater temp
2015-Sep-04 23:00N 33°33' W 141°35'0 0.1 23.3
2015-Sep-04 20:00N 33°33' W 141°35'2 0.2 23.3
2015-Sep-04 06:00N 33°34' W 141°32'0 0.5 23.3
2015-Sep-04 05:00N 33°33' W 141°32'0 0.2 23.4
2015-Sep-04 03:00N 33°34' W 141°32'3 0.3 23.4
2015-Sep-03 17:00N 33°34' W 141°28'0 0.2 23.3
2015-Sep-03 14:00N 33°34' W 141°28'3 0.3 23.3
2015-Sep-03 03:00N 33°33' W 141°24'0 0.5 23.5
2015-Sep-03 02:00N 33°33' W 141°23'3 0.3 23.6
2015-Sep-02 16:00N 33°32' W 141°21'0 0.2 23.4
2015-Sep-02 14:00N 33°31' W 141°20'1 0.4 23.4
2015-Sep-02 12:00N 33°31' W 141°20'0 0.0 23.4
2015-Sep-02 11:00N 33°31' W 141°20'3 0.4 23.5
2015-Sep-02 05:00N 33°28' W 141°18'5 0.4 23.6
2015-Sep-01 16:00N 33°24' W 141°16'0 0.4 23.4
2015-Sep-01 15:00N 33°24' W 141°16'5 0.4 23.4
2015-Sep-01 02:00N 33°19' W 141°16'2 0.5 24.0
2015-Aug-31 23:00N 33°18' W 141°17'2 0.4 24.1
2015-Aug-31 17:00N 33°15' W 141°17'1 0.3 23.6
2015-Aug-31 15:00N 33°15' W 141°17'1 0.5 23.7
2015-Aug-31 14:00N 33°15' W 141°17'0 0.4 23.7
2015-Aug-31 13:00N 33°15' W 141°18'0 0.0 23.7
2015-Aug-31 12:00N 33°15' W 141°18'5 0.4 23.8
2015-Aug-31 00:00N 33°12' W 141°23'1 1.1 24.5
2015-Aug-30 23:00N 33°12' W 141°24'2 0.4 24.7
2015-Aug-30 18:00N 33°12' W 141°26'1 0.6 23.3
2015-Aug-30 17:00N 33°12' W 141°27'1 0.2 23.2
2015-Aug-30 13:00N 33°13' W 141°28'2 0.2 23.2
2015-Aug-30 04:00N 33°13' W 141°30'0 0.2 23.6
2015-Aug-30 03:00N 33°12' W 141°30'0 0.2 23.8
2015-Aug-30 00:00N 33°13' W 141°30'0 0.3 23.8
2015-Aug-29 23:00N 33°13' W 141°30'3 0.1 23.6
2015-Aug-29 05:00N 33°12' W 141°33'0 0.5 23.1
2015-Aug-29 04:00N 33°11' W 141°33'1 0.1 23.1
2015-Aug-28 15:00N 33°10' W 141°34'2 0.2 23.0
2015-Aug-28 05:00N 33°09' W 141°35'1 0.5 23.0
2015-Aug-28 03:00N 33°08' W 141°35'1 0.8 23.0
2015-Aug-28 02:00N 33°07' W 141°35'0 0.1 23.0
2015-Aug-28 01:00N 33°07' W 141°35'1 0.7 23.1
2015-Aug-28 00:00N 33°07' W 141°34'1 0.8 23.1
2015-Aug-27 23:00N 33°07' W 141°35'2 0.4 23.1
2015-Aug-27 17:00N 33°06' W 141°36'0 0.2 23.1
2015-Aug-27 15:00N 33°05' W 141°36'1 0.5 23.1
2015-Aug-27 14:00N 33°05' W 141°37'5 0.4 23.1
2015-Aug-26 23:00N 33°01' W 141°42'4 0.4 23.5
2015-Aug-26 14:00N 32°59' W 141°45'3 0.3 23.4
2015-Aug-26 05:00N 32°58' W 141°48'2 0.6 23.7
2015-Aug-26 02:00N 32°57' W 141°50'1 0.6 23.8
2015-Aug-26 01:00N 32°56' W 141°50'1 0.7 23.8
2015-Aug-25 23:00N 32°55' W 141°51'   23.7
Track history (hours):
 
Tides and Currents Weather Stations Pressure Air Temp Water Temp Dewpoint Dewpoint Depression Visibility Wind Speed Wind Dir Waves Ship Positions

Drifting buoy 46612

Last reported at 2015-Sep-04 23:00 UTC. Time now 2015-Sep-05 03:46 UTC.
Position N 33°33' W 141°35'.

Water temperature 23.3 ° C

Date/timePositionNaut miles runAvg speedWind from/ knotsBaromVisibWave heightAir tempDewpointWater temp
2015-Sep-04 23:00N 33°33' W 141°35'0 0.1 23.3
2015-Sep-04 20:00N 33°33' W 141°35'2 0.2 23.3
2015-Sep-04 06:00N 33°34' W 141°32'0 0.5 23.3
2015-Sep-04 05:00N 33°33' W 141°32'0 0.2 23.4
2015-Sep-04 03:00N 33°34' W 141°32'3 0.3 23.4
2015-Sep-03 17:00N 33°34' W 141°28'0 0.2 23.3
2015-Sep-03 14:00N 33°34' W 141°28'3 0.3 23.3
2015-Sep-03 03:00N 33°33' W 141°24'0 0.5 23.5
2015-Sep-03 02:00N 33°33' W 141°23'3 0.3 23.6
2015-Sep-02 16:00N 33°32' W 141°21'0 0.2 23.4
2015-Sep-02 14:00N 33°31' W 141°20'1 0.4 23.4
2015-Sep-02 12:00N 33°31' W 141°20'0 0.0 23.4
2015-Sep-02 11:00N 33°31' W 141°20'3 0.4 23.5
2015-Sep-02 05:00N 33°28' W 141°18'5 0.4 23.6
2015-Sep-01 16:00N 33°24' W 141°16'0 0.4 23.4
2015-Sep-01 15:00N 33°24' W 141°16'5 0.4 23.4
2015-Sep-01 02:00N 33°19' W 141°16'2 0.5 24.0
2015-Aug-31 23:00N 33°18' W 141°17'2 0.4 24.1
2015-Aug-31 17:00N 33°15' W 141°17'1 0.3 23.6
2015-Aug-31 15:00N 33°15' W 141°17'1 0.5 23.7
2015-Aug-31 14:00N 33°15' W 141°17'0 0.4 23.7
2015-Aug-31 13:00N 33°15' W 141°18'0 0.0 23.7
2015-Aug-31 12:00N 33°15' W 141°18'5 0.4 23.8
2015-Aug-31 00:00N 33°12' W 141°23'1 1.1 24.5
2015-Aug-30 23:00N 33°12' W 141°24'2 0.4 24.7
2015-Aug-30 18:00N 33°12' W 141°26'1 0.6 23.3
2015-Aug-30 17:00N 33°12' W 141°27'1 0.2 23.2
2015-Aug-30 13:00N 33°13' W 141°28'2 0.2 23.2
2015-Aug-30 04:00N 33°13' W 141°30'0 0.2 23.6
2015-Aug-30 03:00N 33°12' W 141°30'0 0.2 23.8
2015-Aug-30 00:00N 33°13' W 141°30'0 0.3 23.8
2015-Aug-29 23:00N 33°13' W 141°30'3 0.1 23.6
2015-Aug-29 05:00N 33°12' W 141°33'0 0.5 23.1
2015-Aug-29 04:00N 33°11' W 141°33'1 0.1 23.1
2015-Aug-28 15:00N 33°10' W 141°34'2 0.2 23.0
2015-Aug-28 05:00N 33°09' W 141°35'1 0.5 23.0
2015-Aug-28 03:00N 33°08' W 141°35'1 0.8 23.0
2015-Aug-28 02:00N 33°07' W 141°35'0 0.1 23.0
2015-Aug-28 01:00N 33°07' W 141°35'1 0.7 23.1
2015-Aug-28 00:00N 33°07' W 141°34'1 0.8 23.1
2015-Aug-27 23:00N 33°07' W 141°35'2 0.4 23.1
2015-Aug-27 17:00N 33°06' W 141°36'0 0.2 23.1
2015-Aug-27 15:00N 33°05' W 141°36'1 0.5 23.1
2015-Aug-27 14:00N 33°05' W 141°37'5 0.4 23.1
2015-Aug-26 23:00N 33°01' W 141°42'4 0.4 23.5
2015-Aug-26 14:00N 32°59' W 141°45'3 0.3 23.4
2015-Aug-26 05:00N 32°58' W 141°48'2 0.6 23.7
2015-Aug-26 02:00N 32°57' W 141°50'1 0.6 23.8
2015-Aug-26 01:00N 32°56' W 141°50'1 0.7 23.8
2015-Aug-25 23:00N 32°55' W 141°51'   23.7

Dump ship's entire track history